createdAt,value
2023-05-05T00:01:11.935Z,100565.52
2023-05-05T00:03:38.749Z,100563.46
2023-05-05T00:06:05.759Z,100562.33
2023-05-05T00:08:32.734Z,100564.50
2023-05-05T00:10:59.573Z,100568.60
2023-05-05T00:13:26.433Z,100562.42
2023-05-05T00:15:53.700Z,100563.58
2023-05-05T00:18:21.214Z,100561.97
2023-05-05T00:20:48.190Z,100562.94
2023-05-05T00:23:15.754Z,100565.68
2023-05-05T00:25:42.630Z,100565.02
2023-05-05T00:28:09.533Z,100568.66
2023-05-05T00:30:36.545Z,100566.15
2023-05-05T00:33:03.399Z,100567.56
2023-05-05T00:35:30.371Z,100565.94
2023-05-05T00:37:57.222Z,100567.86
2023-05-05T00:40:25.331Z,100571.52
2023-05-05T00:42:52.498Z,100574.80
2023-05-05T00:45:20.070Z,100573.56
2023-05-05T00:47:57.202Z,100575.36
2023-05-05T00:50:24.671Z,100571.31
2023-05-05T00:52:53.021Z,100573.96
2023-05-05T00:55:20.061Z,100573.44
2023-05-05T00:57:47.605Z,100574.84
2023-05-05T01:00:14.561Z,100573.45
2023-05-05T01:02:41.572Z,100577.65
2023-05-05T01:05:08.969Z,100574.89
2023-05-05T01:07:48.706Z,100565.98
2023-05-05T01:10:31.424Z,100571.54
2023-05-05T01:13:03.171Z,100563.14
2023-05-05T01:15:33.703Z,100566.21
2023-05-05T01:18:11.872Z,100564.33
2023-05-05T01:20:46.318Z,100565.34
2023-05-05T01:23:15.499Z,100561.77
2023-05-05T01:25:49.851Z,100563.48
2023-05-05T01:28:19.665Z,100565.13
2023-05-05T01:30:50.319Z,100564.42
2023-05-05T01:33:19.524Z,100564.35
2023-05-05T01:35:47.663Z,100559.61
2023-05-05T01:38:15.173Z,100558.42
2023-05-05T01:40:46.414Z,100553.31
2023-05-05T01:43:13.517Z,100551.95
2023-05-05T01:45:41.021Z,100553.52
2023-05-05T01:48:07.916Z,100551.23
2023-05-05T01:50:34.859Z,100546.45
2023-05-05T01:53:01.659Z,100540.73
2023-05-05T01:55:28.861Z,100538.36
2023-05-05T01:57:55.768Z,100542.42
2023-05-05T02:00:25.326Z,100538.27
2023-05-05T02:02:52.342Z,100536.59
2023-05-05T02:05:22.048Z,100534.93
2023-05-05T02:07:49.512Z,100531.45
2023-05-05T02:10:16.351Z,100537.91
2023-05-05T02:12:43.198Z,100537.82
2023-05-05T02:15:10.352Z,100536.29
2023-05-05T02:17:37.202Z,100538.15
2023-05-05T02:20:04.455Z,100537.09
2023-05-05T02:22:32.621Z,100540.79
2023-05-05T02:25:01.203Z,100540.34
2023-05-05T02:27:28.008Z,100538.97
2023-05-05T02:29:58.066Z,100537.02
2023-05-05T02:32:29.960Z,100536.77
2023-05-05T02:34:56.744Z,100536.02
2023-05-05T02:37:24.190Z,100534.52
2023-05-05T02:40:03.351Z,100534.45
2023-05-05T02:42:33.641Z,100535.05
2023-05-05T02:45:02.052Z,100534.69
2023-05-05T02:47:36.719Z,100534.65
2023-05-05T02:50:05.419Z,100540.65
2023-05-05T02:52:32.822Z,100544.29
2023-05-05T02:54:59.871Z,100546.71
2023-05-05T02:57:36.277Z,100542.49
2023-05-05T03:00:07.088Z,100546.78
2023-05-05T03:02:41.934Z,100545.91
2023-05-05T03:05:22.773Z,100546.56
2023-05-05T03:08:01.940Z,100553.48
2023-05-05T03:10:31.010Z,100554.77
2023-05-05T03:13:00.092Z,100552.73
2023-05-05T03:15:46.772Z,100553.45
2023-05-05T03:18:15.740Z,100554.83
2023-05-05T03:20:45.111Z,100557.63
2023-05-05T03:23:13.675Z,100554.20
2023-05-05T03:25:41.568Z,100556.67
2023-05-05T03:28:09.318Z,100561.54
2023-05-05T03:30:36.174Z,100562.45
2023-05-05T03:33:03.157Z,100562.86
2023-05-05T03:35:30.473Z,100561.40
2023-05-05T03:37:57.800Z,100563.74
2023-05-05T03:40:36.242Z,100559.65
2023-05-05T03:43:10.800Z,100562.70
2023-05-05T03:45:37.995Z,100564.36
2023-05-05T03:48:05.688Z,100559.77
2023-05-05T03:50:32.805Z,100559.27
2023-05-05T03:52:59.650Z,100561.52
2023-05-05T03:55:26.695Z,100560.39
2023-05-05T03:57:53.537Z,100566.80
2023-05-05T04:00:20.488Z,100567.30
2023-05-05T04:02:47.452Z,100569.57
2023-05-05T04:05:14.853Z,100568.58
2023-05-05T04:07:42.274Z,100571.29
2023-05-05T04:10:09.484Z,100571.62
2023-05-05T04:12:36.489Z,100572.80
2023-05-05T04:15:03.546Z,100574.42
2023-05-05T04:17:30.795Z,100576.30
2023-05-05T04:19:57.745Z,100578.86
2023-05-05T04:22:24.729Z,100581.50
2023-05-05T04:24:51.974Z,100579.42
2023-05-05T04:27:18.920Z,100584.20
2023-05-05T04:29:45.883Z,100589.09
2023-05-05T04:32:13.015Z,100589.64
2023-05-05T04:34:39.965Z,100591.91
2023-05-05T04:37:07.123Z,100592.02
2023-05-05T04:39:34.492Z,100591.80
2023-05-05T04:42:02.433Z,100594.45
2023-05-05T04:44:29.587Z,100592.80
2023-05-05T04:46:56.731Z,100590.21
2023-05-05T04:49:23.882Z,100591.98
2023-05-05T04:51:50.832Z,100596.10
2023-05-05T04:54:17.792Z,100594.58
2023-05-05T04:56:44.603Z,100594.70
2023-05-05T04:59:11.341Z,100596.56
2023-05-05T05:01:38.719Z,100597.91
2023-05-05T05:04:05.663Z,100589.70
2023-05-05T05:06:32.607Z,100595.80
2023-05-05T05:08:59.512Z,100596.84
2023-05-05T05:11:26.591Z,100594.92
2023-05-05T05:14:24.198Z,100588.56
2023-05-05T05:16:52.649Z,100592.40
2023-05-05T05:19:20.399Z,100594.71
2023-05-05T05:21:47.753Z,100598.02
2023-05-05T05:24:14.795Z,100597.63
2023-05-05T05:26:41.643Z,100597.98
2023-05-05T05:29:08.592Z,100598.88
2023-05-05T05:31:37.090Z,100599.27
2023-05-05T05:34:04.425Z,100601.10
2023-05-05T05:36:31.877Z,100600.13
2023-05-05T05:41:58.116Z,100599.83
2023-05-05T05:44:31.240Z,100602.89
2023-05-05T05:46:59.165Z,100601.94
2023-05-05T05:49:28.511Z,100606.09
2023-05-05T05:51:57.196Z,100609.38
2023-05-05T05:54:25.543Z,100613.69
2023-05-05T05:56:52.724Z,100612.01
2023-05-05T05:59:19.644Z,100609.42
2023-05-05T06:01:48.230Z,100613.36
2023-05-05T06:04:15.311Z,100613.73
2023-05-05T06:06:44.674Z,100615.66
2023-05-05T06:09:36.890Z,100613.64
2023-05-05T06:12:03.884Z,100617.45
2023-05-05T06:14:31.306Z,100612.39
2023-05-05T06:16:58.601Z,100617.39
2023-05-05T06:19:26.275Z,100615.77
2023-05-05T06:21:53.273Z,100616.71
2023-05-05T06:24:20.526Z,100612.61
2023-05-05T06:26:47.369Z,100611.80
2023-05-05T06:29:14.278Z,100613.05
2023-05-05T06:31:41.159Z,100614.02
2023-05-05T06:34:08.307Z,100609.69
2023-05-05T06:36:35.245Z,100604.69
2023-05-05T06:39:02.985Z,100613.20
2023-05-05T06:41:29.982Z,100605.59
2023-05-05T06:43:58.233Z,100605.21
2023-05-05T06:46:25.391Z,100608.19
2023-05-05T06:48:52.331Z,100610.02
2023-05-05T06:51:19.894Z,100609.92
2023-05-05T06:53:46.835Z,100610.91
2023-05-05T06:56:13.662Z,100606.84
2023-05-05T06:58:41.340Z,100605.67
2023-05-05T07:01:08.687Z,100602.15
2023-05-05T07:03:35.978Z,100606.61
2023-05-05T07:06:03.655Z,100605.30
2023-05-05T07:08:30.463Z,100607.92
2023-05-05T07:10:57.512Z,100609.86
2023-05-05T07:13:24.444Z,100609.33
2023-05-05T07:15:51.528Z,100610.84
2023-05-05T07:18:20.497Z,100611.67
2023-05-05T07:20:47.440Z,100608.45
2023-05-05T07:23:14.372Z,100613.20
2023-05-05T07:25:41.231Z,100610.75
2023-05-05T07:28:08.128Z,100612.39
2023-05-05T07:30:35.015Z,100611.77
2023-05-05T07:33:01.883Z,100609.69
2023-05-05T07:35:28.973Z,100611.98
2023-05-05T07:37:55.815Z,100613.14
2023-05-05T07:40:22.645Z,100614.54
2023-05-05T07:42:49.423Z,100616.45
2023-05-05T07:45:16.359Z,100610.98
2023-05-05T07:47:43.231Z,100615.23
2023-05-05T07:50:10.669Z,100618.79
2023-05-05T07:52:44.944Z,100614.03
2023-05-05T07:55:15.121Z,100613.70
2023-05-05T07:57:41.997Z,100611.08
2023-05-05T08:00:09.906Z,100615.49
2023-05-05T08:02:39.794Z,100612.61
2023-05-05T08:05:07.752Z,100606.95
2023-05-05T08:07:36.688Z,100604.02
2023-05-05T08:10:03.533Z,100601.33
2023-05-05T08:12:30.809Z,100606.33
2023-05-05T08:14:57.638Z,100606.29
2023-05-05T08:17:27.191Z,100603.73
2023-05-05T08:19:54.285Z,100607.95
2023-05-05T08:22:21.637Z,100611.41
2023-05-05T08:24:48.481Z,100614.30
2023-05-05T08:27:15.428Z,100612.71
2023-05-05T08:29:42.372Z,100609.96
2023-05-05T08:32:09.133Z,100608.27
2023-05-05T08:34:35.997Z,100610.45
2023-05-05T08:37:02.789Z,100602.69
2023-05-05T08:39:29.944Z,100606.09
2023-05-05T08:41:56.760Z,100610.52
2023-05-05T08:44:23.545Z,100610.12
2023-05-05T08:46:50.518Z,100603.55
2023-05-05T08:49:17.400Z,100605.33
2023-05-05T08:51:44.574Z,100608.70
2023-05-05T08:54:15.131Z,100608.12
2023-05-05T08:56:42.172Z,100610.88
2023-05-05T08:59:10.105Z,100607.73
2023-05-05T09:01:37.169Z,100611.65
2023-05-05T09:04:04.198Z,100612.13
2023-05-05T09:06:32.370Z,100610.68
2023-05-05T09:08:59.725Z,100612.05
2023-05-05T09:11:28.237Z,100610.05
2023-05-05T09:13:55.668Z,100609.23
2023-05-05T09:16:22.694Z,100606.70
2023-05-05T09:18:49.670Z,100601.66
2023-05-05T09:21:23.257Z,100602.67
2023-05-05T09:24:08.598Z,100603.46
2023-05-05T09:26:39.516Z,100598.96
2023-05-05T09:29:06.419Z,100596.38
2023-05-05T09:31:33.625Z,100596.22
2023-05-05T09:34:04.449Z,100595.10
2023-05-05T09:36:42.433Z,100597.20
2023-05-05T09:39:09.425Z,100590.17
2023-05-05T09:41:36.541Z,100587.89
2023-05-05T09:44:03.355Z,100589.82
2023-05-05T09:46:30.206Z,100580.15
2023-05-05T09:48:57.134Z,100582.95
2023-05-05T09:51:30.125Z,100582.75
2023-05-05T09:53:57.066Z,100583.92
2023-05-05T09:56:36.152Z,100583.45
2023-05-05T09:59:09.560Z,100584.17
2023-05-05T10:01:36.671Z,100580.86
2023-05-05T10:04:03.481Z,100581.84
2023-05-05T10:06:48.681Z,100579.27
2023-05-05T10:09:15.599Z,100578.38
2023-05-05T10:11:42.578Z,100576.90
2023-05-05T10:14:09.320Z,100575.73
2023-05-05T10:16:36.384Z,100577.54
2023-05-05T10:19:04.235Z,100575.83
2023-05-05T10:21:33.082Z,100572.27
2023-05-05T10:24:10.901Z,100572.15
2023-05-05T10:26:39.362Z,100570.85
2023-05-05T10:29:07.662Z,100570.65
2023-05-05T10:31:37.551Z,100568.95
2023-05-05T10:34:06.226Z,100566.16
2023-05-05T10:36:33.260Z,100569.92
2023-05-05T10:39:00.171Z,100565.45
2023-05-05T10:41:27.198Z,100565.32
2023-05-05T10:44:02.868Z,100562.38
2023-05-05T10:46:31.403Z,100560.12
2023-05-05T10:49:13.049Z,100560.63
2023-05-05T10:51:41.179Z,100562.27
2023-05-05T10:54:17.281Z,100554.33
2023-05-05T10:56:44.090Z,100551.71
2023-05-05T10:59:29.970Z,100549.86
2023-05-05T11:01:56.702Z,100544.42
2023-05-05T11:04:23.813Z,100545.73
2023-05-05T11:07:11.813Z,100544.13
2023-05-05T11:09:57.909Z,100542.10
2023-05-05T11:12:24.808Z,100539.31
2023-05-05T11:15:10.932Z,100538.14
2023-05-05T11:17:44.417Z,100539.20
2023-05-05T11:20:11.721Z,100535.30
2023-05-05T11:22:58.790Z,100534.31
2023-05-05T11:25:35.079Z,100530.25
2023-05-05T11:28:05.050Z,100524.03
2023-05-05T11:30:31.828Z,100519.80
2023-05-05T11:33:17.528Z,100524.14
2023-05-05T11:36:06.114Z,100517.90
2023-05-05T11:38:52.564Z,100515.99
2023-05-05T11:41:26.458Z,100514.80
2023-05-05T11:44:12.748Z,100516.87
2023-05-05T11:46:40.605Z,100511.34
2023-05-05T11:49:08.387Z,100507.23
2023-05-05T11:51:35.281Z,100505.66
2023-05-05T11:54:02.086Z,100507.13
2023-05-05T11:56:29.119Z,100501.48
2023-05-05T11:59:06.412Z,100499.11
2023-05-05T12:01:33.353Z,100499.50
2023-05-05T12:04:00.368Z,100499.23
2023-05-05T12:06:27.754Z,100494.66
2023-05-05T12:08:54.473Z,100494.92
2023-05-05T12:11:21.367Z,100493.39
2023-05-05T12:13:48.182Z,100488.35
2023-05-05T12:16:15.556Z,100483.73
2023-05-05T12:18:42.504Z,100479.55
2023-05-05T12:21:16.103Z,100483.36
2023-05-05T12:23:42.988Z,100478.48
2023-05-05T12:26:29.320Z,100476.38
2023-05-05T12:28:56.816Z,100474.48
2023-05-05T12:31:23.762Z,100473.17
2023-05-05T12:33:50.703Z,100470.77
2023-05-05T12:36:17.533Z,100469.73
2023-05-05T12:38:44.582Z,100469.80
2023-05-05T12:41:11.571Z,100464.27
2023-05-05T12:43:38.790Z,100463.45
2023-05-05T12:46:06.752Z,100468.64
2023-05-05T12:48:34.222Z,100463.49
2023-05-05T12:51:17.543Z,100459.75
2023-05-05T12:53:47.758Z,100457.75
2023-05-05T12:56:33.988Z,100452.98
2023-05-05T12:59:01.601Z,100454.92
2023-05-05T13:01:29.043Z,100455.41
2023-05-05T13:04:10.792Z,100454.17
2023-05-05T13:06:38.420Z,100454.45
2023-05-05T13:09:05.372Z,100452.92
2023-05-05T13:11:36.523Z,100454.17
2023-05-05T13:14:03.897Z,100452.75
2023-05-05T13:16:31.210Z,100452.21
2023-05-05T13:18:58.251Z,100447.31
2023-05-05T13:21:25.086Z,100451.23
2023-05-05T13:23:51.964Z,100452.02
2023-05-05T13:26:18.771Z,100450.45
2023-05-05T13:28:45.823Z,100448.77
2023-05-05T13:31:12.711Z,100446.64
2023-05-05T13:33:39.513Z,100443.98
2023-05-05T13:36:06.503Z,100443.22
2023-05-05T13:38:33.598Z,100447.24
2023-05-05T13:41:00.508Z,100443.33
2023-05-05T13:43:27.294Z,100441.37
2023-05-05T13:45:55.069Z,100441.36
2023-05-05T13:48:24.141Z,100434.64
2023-05-05T13:50:51.003Z,100442.02
2023-05-05T13:53:17.808Z,100437.30
2023-05-05T13:55:44.673Z,100436.58
2023-05-05T13:58:11.538Z,100437.52
2023-05-05T14:00:38.919Z,100438.83
2023-05-05T14:03:06.119Z,100434.09
2023-05-05T14:05:34.193Z,100438.04
2023-05-05T14:08:01.338Z,100434.73
2023-05-05T14:10:31.187Z,100435.80
2023-05-05T14:12:58.116Z,100432.22
2023-05-05T14:15:25.029Z,100431.98
2023-05-05T14:17:51.847Z,100429.86
2023-05-05T14:20:18.932Z,100427.70
2023-05-05T14:22:47.122Z,100422.22
2023-05-05T14:25:15.857Z,100420.43
2023-05-05T14:27:42.594Z,100417.24
2023-05-05T14:30:09.689Z,100419.19
2023-05-05T14:32:36.507Z,100418.91
2023-05-05T14:35:03.678Z,100420.96
2023-05-05T14:37:30.606Z,100415.13
2023-05-05T14:39:58.409Z,100419.84
2023-05-05T14:42:25.873Z,100421.67
2023-05-05T14:44:52.888Z,100417.55
2023-05-05T14:47:19.630Z,100415.42
2023-05-05T14:49:46.369Z,100417.38
2023-05-05T14:52:13.121Z,100417.86
2023-05-05T14:54:40.060Z,100414.71
2023-05-05T14:57:07.724Z,100419.05
2023-05-05T14:59:34.686Z,100414.34
2023-05-05T15:02:01.687Z,100423.33
2023-05-05T15:04:28.550Z,100422.45
2023-05-05T15:06:55.390Z,100418.33
2023-05-05T15:09:22.230Z,100419.66
2023-05-05T15:11:49.289Z,100424.44
2023-05-05T15:14:16.039Z,100427.35
2023-05-05T15:16:43.087Z,100423.92
2023-05-05T15:19:09.934Z,100425.38
2023-05-05T15:21:36.854Z,100420.23
2023-05-05T15:24:04.962Z,100421.74
2023-05-05T15:26:31.933Z,100426.11
2023-05-05T15:28:58.822Z,100428.63
2023-05-05T15:31:26.006Z,100429.92
2023-05-05T15:33:52.812Z,100428.61
2023-05-05T15:36:22.840Z,100429.79
2023-05-05T15:38:50.627Z,100429.55
2023-05-05T15:41:17.439Z,100430.83
2023-05-05T15:43:44.210Z,100426.99
